createdAt,value
2024-04-26T04:02:59.298Z,100.00
2024-04-26T04:07:11.603Z,100.00
2024-04-26T04:11:23.928Z,100.00
2024-04-26T04:15:36.243Z,100.00
2024-04-26T04:19:48.444Z,100.00
2024-04-26T04:24:00.767Z,100.00
2024-04-26T04:28:12.991Z,100.00
2024-04-26T04:32:25.444Z,100.00
2024-04-26T04:36:37.741Z,100.00
2024-04-26T04:40:49.916Z,100.00
2024-04-26T04:45:02.104Z,100.00
2024-04-26T04:49:14.489Z,100.00
2024-04-26T04:53:26.892Z,100.00
2024-04-26T04:57:39.173Z,100.00
2024-04-26T05:01:51.374Z,100.00
2024-04-26T05:06:03.937Z,100.00
2024-04-26T05:10:16.499Z,100.00
2024-04-26T05:14:28.686Z,100.00
2024-04-26T05:18:41.021Z,100.00
2024-04-26T05:22:53.252Z,100.00
2024-04-26T05:27:09.549Z,100.00
2024-04-26T05:31:21.922Z,100.00
2024-04-26T05:35:34.142Z,100.00
2024-04-26T05:39:46.404Z,100.00
2024-04-26T05:43:58.556Z,100.00
2024-04-26T05:48:10.951Z,100.00
2024-04-26T05:52:23.262Z,100.00
2024-04-26T05:56:35.600Z,100.00
2024-04-26T06:00:47.880Z,100.00
2024-04-26T06:05:10.294Z,100.00
2024-04-26T06:09:22.705Z,100.00
2024-04-26T06:13:35.510Z,100.00
2024-04-26T06:17:47.868Z,100.00
2024-04-26T06:22:00.177Z,100.00
2024-04-26T06:26:12.507Z,100.00
2024-04-26T06:30:24.781Z,100.00
2024-04-26T06:34:37.120Z,100.00
2024-04-26T06:38:49.404Z,100.00
2024-04-26T06:43:01.803Z,100.00
2024-04-26T06:47:14.114Z,100.00
2024-04-26T06:51:26.414Z,100.00
2024-04-26T06:55:38.650Z,100.00
2024-04-26T06:59:50.933Z,100.00
2024-04-26T07:04:04.238Z,100.00
2024-04-26T07:08:16.762Z,100.00
2024-04-26T07:12:29.065Z,100.00
2024-04-26T07:16:41.315Z,100.00
2024-04-26T07:20:55.737Z,100.00
2024-04-26T07:25:08.605Z,100.00
2024-04-26T07:29:27.332Z,100.00
2024-04-26T07:33:42.153Z,100.00
2024-04-26T07:37:57.610Z,100.00
2024-04-26T07:42:11.720Z,100.00
2024-04-26T07:46:24.077Z,100.00
2024-04-26T07:50:36.361Z,100.00
2024-04-26T07:54:48.603Z,100.00
2024-04-26T07:59:01.367Z,97.97
2024-04-26T08:03:13.817Z,95.29
2024-04-26T08:07:26.059Z,93.49
2024-04-26T08:11:38.399Z,89.46
2024-04-26T08:15:52.448Z,90.85
2024-04-26T08:20:05.807Z,90.39
2024-04-26T08:24:18.134Z,89.32
2024-04-26T08:28:31.482Z,87.77
2024-04-26T08:32:50.995Z,89.67
2024-04-26T08:37:09.333Z,88.37
2024-04-26T08:41:26.499Z,88.40
2024-04-26T08:45:42.818Z,88.28
2024-04-26T08:49:57.724Z,87.52
2024-04-26T08:54:10.152Z,87.97
2024-04-26T08:58:22.972Z,86.93
2024-04-26T09:02:35.283Z,86.10
2024-04-26T09:06:47.556Z,84.66
2024-04-26T09:10:59.796Z,82.58
2024-04-26T09:15:12.499Z,78.90
2024-04-26T09:19:25.276Z,81.61
2024-04-26T09:23:38.627Z,79.37
2024-04-26T09:27:50.844Z,79.71
2024-04-26T09:32:13.144Z,79.59
2024-04-26T09:36:34.629Z,81.16
2024-04-26T09:40:48.604Z,76.05
2024-04-26T09:45:02.831Z,76.69
2024-04-26T09:49:15.602Z,76.08
2024-04-26T09:53:29.531Z,78.14
2024-04-26T09:57:42.109Z,74.13
2024-04-26T10:01:55.566Z,76.07
2024-04-26T10:06:14.279Z,75.75
2024-04-26T10:10:27.611Z,72.47
2024-04-26T10:14:39.864Z,65.67
2024-04-26T10:18:52.316Z,66.67
2024-04-26T10:23:06.435Z,62.82
2024-04-26T10:27:30.332Z,60.70
2024-04-26T10:31:42.599Z,60.48
2024-04-26T10:36:08.168Z,61.73
2024-04-26T10:40:20.588Z,57.11
2024-04-26T10:44:33.396Z,58.83
2024-04-26T10:48:45.943Z,54.77
2024-04-26T10:53:08.436Z,57.21
2024-04-26T10:57:22.004Z,57.99
2024-04-26T11:01:35.590Z,56.08
2024-04-26T11:05:48.395Z,57.57
2024-04-26T11:10:00.796Z,57.48
2024-04-26T11:14:13.059Z,60.47
2024-04-26T11:18:25.903Z,59.35
2024-04-26T11:22:38.205Z,57.55
2024-04-26T11:26:50.432Z,57.88
2024-04-26T11:31:02.655Z,59.75
2024-04-26T11:35:15.012Z,61.68
2024-04-26T11:39:27.334Z,61.75
2024-04-26T11:43:40.346Z,65.19
2024-04-26T11:47:54.050Z,66.55
2024-04-26T11:52:07.877Z,69.34
2024-04-26T11:56:20.093Z,73.35
2024-04-26T12:00:32.352Z,78.33
2024-04-26T12:04:47.232Z,79.85
2024-04-26T12:08:59.602Z,79.63
2024-04-26T12:13:11.856Z,74.74
2024-04-26T12:17:24.175Z,74.21
2024-04-26T12:21:36.412Z,73.05
2024-04-26T12:25:48.740Z,71.01
2024-04-26T12:30:01.770Z,69.82
2024-04-26T12:34:16.345Z,70.12
2024-04-26T12:38:28.760Z,71.01
2024-04-26T12:42:46.461Z,69.74
2024-04-26T12:47:02.624Z,67.86
2024-04-26T12:51:15.147Z,66.25
2024-04-26T12:55:27.464Z,66.99
2024-04-26T12:59:39.933Z,64.37
2024-04-26T13:03:53.478Z,65.10
2024-04-26T13:08:05.821Z,63.62
2024-04-26T13:12:18.208Z,62.74
2024-04-26T13:16:30.644Z,61.09
2024-04-26T13:20:42.945Z,59.28
2024-04-26T13:24:55.530Z,58.49
2024-04-26T13:29:07.711Z,56.21
2024-04-26T13:33:20.370Z,57.99
2024-04-26T13:37:32.669Z,59.28
2024-04-26T13:41:46.633Z,59.16
2024-04-26T13:45:58.992Z,61.14
2024-04-26T13:50:12.262Z,59.19
2024-04-26T13:54:24.780Z,60.70
2024-04-26T13:58:37.060Z,63.60
2024-04-26T14:02:49.445Z,65.61
2024-04-26T14:07:01.743Z,67.30
2024-04-26T14:11:17.128Z,67.96
2024-04-26T14:15:29.553Z,69.59
2024-04-26T14:19:41.959Z,71.65
2024-04-26T14:23:54.371Z,70.75
2024-04-26T14:28:06.621Z,73.61
2024-04-26T14:32:19.104Z,75.52
2024-04-26T14:36:33.056Z,75.12
2024-04-26T14:40:45.318Z,73.88
2024-04-26T14:44:57.545Z,74.80
2024-04-26T14:49:09.921Z,74.96
2024-04-26T14:53:22.189Z,74.73
2024-04-26T14:57:34.402Z,75.57
2024-04-26T15:01:46.648Z,74.90
2024-04-26T15:05:58.897Z,74.41
2024-04-26T15:10:12.282Z,73.52
2024-04-26T15:14:24.488Z,71.52
2024-04-26T15:18:38.157Z,70.19
2024-04-26T15:22:50.417Z,68.91
2024-04-26T15:27:02.699Z,72.63
2024-04-26T15:31:19.294Z,73.00
2024-04-26T15:35:33.149Z,73.98
2024-04-26T15:39:46.038Z,75.93
2024-04-26T15:43:58.323Z,76.61
2024-04-26T15:48:10.605Z,76.55
2024-04-26T15:52:22.846Z,76.40
2024-04-26T15:56:35.054Z,76.21
2024-04-26T16:00:48.020Z,76.64
2024-04-26T16:05:00.397Z,77.45
2024-04-26T16:09:13.023Z,77.48
2024-04-26T16:13:25.303Z,78.02
2024-04-26T16:17:38.147Z,78.18
2024-04-26T16:21:50.425Z,77.69
2024-04-26T16:26:02.658Z,76.49
2024-04-26T16:30:14.931Z,76.02
2024-04-26T16:34:27.287Z,75.21
2024-04-26T16:38:39.616Z,75.09
2024-04-26T16:42:51.833Z,74.94
2024-04-26T16:47:05.325Z,74.22
2024-04-26T16:51:17.610Z,77.11
2024-04-26T16:55:29.874Z,79.13
2024-04-26T16:59:42.342Z,79.70
2024-04-26T17:03:55.428Z,82.31
2024-04-26T17:08:07.644Z,84.49
2024-04-26T17:12:19.909Z,86.96
2024-04-26T17:16:34.376Z,87.28
2024-04-26T17:20:46.652Z,89.14
2024-04-26T17:24:59.029Z,89.29
2024-04-26T17:29:11.338Z,89.24
2024-04-26T17:33:26.680Z,89.80
2024-04-26T17:37:39.018Z,90.11
2024-04-26T17:41:51.262Z,90.98
2024-04-26T17:46:03.549Z,90.92
2024-04-26T17:50:15.845Z,91.80
2024-04-26T17:54:30.534Z,91.17
2024-04-26T17:58:42.763Z,92.17
2024-04-26T18:02:56.523Z,91.43
2024-04-26T18:07:08.821Z,92.01
2024-04-26T18:11:21.153Z,92.99
2024-04-26T18:15:33.472Z,93.72
2024-04-26T18:19:45.848Z,94.49
2024-04-26T18:24:00.722Z,95.50
2024-04-26T18:28:12.902Z,96.46
2024-04-26T18:32:29.545Z,97.58
2024-04-26T18:36:41.778Z,98.68
2024-04-26T18:40:53.992Z,99.54
2024-04-26T18:45:06.342Z,100.00
2024-04-26T18:49:18.568Z,100.00
2024-04-26T18:53:31.401Z,100.00
2024-04-26T18:57:43.592Z,100.00
2024-04-26T19:01:55.980Z,100.00
2024-04-26T19:06:08.348Z,100.00
2024-04-26T19:10:20.624Z,100.00
2024-04-26T19:14:32.913Z,100.00
2024-04-26T19:18:45.192Z,100.00
2024-04-26T19:22:57.513Z,100.00
2024-04-26T19:27:09.823Z,100.00
2024-04-26T19:31:24.222Z,100.00
2024-04-26T19:35:36.534Z,100.00
2024-04-26T19:39:48.786Z,100.00
2024-04-26T19:44:01.157Z,100.00
2024-04-26T19:48:13.847Z,100.00
2024-04-26T19:52:45.767Z,100.00
2024-04-26T19:56:58.029Z,100.00
2024-04-26T20:01:10.730Z,100.00
2024-04-26T20:05:23.259Z,100.00
2024-04-26T20:09:35.753Z,100.00
2024-04-26T20:13:48.064Z,100.00
2024-04-26T20:18:00.923Z,100.00
2024-04-26T20:22:13.199Z,100.00
2024-04-26T20:26:25.386Z,100.00
2024-04-26T20:30:37.601Z,100.00
2024-04-26T20:34:49.886Z,100.00
2024-04-26T20:39:02.281Z,100.00
2024-04-26T20:43:14.510Z,100.00
2024-04-26T20:47:26.814Z,100.00
2024-04-26T20:51:39.792Z,100.00
2024-04-26T20:55:52.094Z,100.00
2024-04-26T21:00:04.592Z,100.00
2024-04-26T21:04:16.915Z,100.00
2024-04-26T21:08:29.173Z,100.00
2024-04-26T21:12:41.369Z,100.00
2024-04-26T21:16:53.684Z,100.00
2024-04-26T21:21:05.938Z,100.00
2024-04-26T21:25:19.812Z,100.00
2024-04-26T21:29:32.035Z,100.00
